SV2BBO-2 Thessaloniki GR current weather conditions

sailwx.info

Wind from 014 at 6 knots gusting 7

Air temperature 12.8° C
Dewpoint -6.2° C

Last reported at 2014-Nov-20 22:44 UTC.
Time now 2014-Nov-20 23:06 UTC

Location: N 40°38' E 022°57'.
View on Google Maps.

See reports from other nearby stations

  
Tides and Currents Weather Stations Pressure Air Temp Water Temp Dewpoint Dewpoint Depression Visibility Wind Speed Wind Dir Waves Ship Positions
date/time (UTC)wind fromknots sea level pressurealtimeterstation pressurevisibilityair tempwater tempwave heightnotes
2014-Nov-20 22:44 014 6 gusting 7 12.8
2014-Nov-20 22:34 023 6 gusting 8 12.8
2014-Nov-20 22:14 009 6 gusting 13 12.8
2014-Nov-20 22:04 358 7 gusting 5 12.8
2014-Nov-20 21:54 004 8 gusting 9 12.8
2014-Nov-20 21:44 338 10 gusting 14 12.8
2014-Nov-20 21:34 349 10 gusting 12 12.8
2014-Nov-20 21:14 017 6 gusting 7 13.3
2014-Nov-20 21:04 011 4 gusting 9 13.3
2014-Nov-20 20:54 357 4 gusting 6 13.3
2014-Nov-20 20:44 003 5 gusting 7 13.3
2014-Nov-20 20:34 047 4 gusting 6 13.3
2014-Nov-20 20:14 009 5 gusting 7 13.3
2014-Nov-20 20:04 006 7 gusting 11 13.3
2014-Nov-20 19:54 354 6 gusting 6 13.3
2014-Nov-20 19:44 005 6 gusting 7 13.9
2014-Nov-20 19:34 356 6 gusting 7 13.9
2014-Nov-20 19:14 012 7 gusting 11 14.4
2014-Nov-20 19:04 003 6 gusting 9 14.4
2014-Nov-20 18:54 005 4 gusting 5 14.4
2014-Nov-20 18:44 333 6 gusting 5 14.4
2014-Nov-20 18:34 012 8 gusting 13 13.9
2014-Nov-20 18:14 291 7 gusting 13 14.4
2014-Nov-20 18:04 357 6 gusting 13 14.4
2014-Nov-20 17:54 325 7 gusting 12 14.4
2014-Nov-20 17:44 14.4
2014-Nov-20 17:34 331 8 gusting 11 14.4
2014-Nov-20 17:14 340 8 gusting 9 13.9
2014-Nov-20 17:04 356 8 gusting 11 13.9
2014-Nov-20 16:44 329 7 gusting 10 13.9
2014-Nov-20 16:34 356 5 gusting 6 13.9
2014-Nov-20 16:14 006 6 gusting 10 13.9
2014-Nov-20 16:04 343 8 gusting 9 14.4
2014-Nov-20 15:54 322 9 gusting 13 14.4
2014-Nov-20 15:44 350 8 gusting 9 14.4
2014-Nov-20 15:34 009 6 gusting 15 14.4
2014-Nov-20 15:14 004 6 gusting 8 15.6
2014-Nov-20 15:04 342 7 gusting 11 15.6
2014-Nov-20 14:54 350 6 gusting 9 15.6
2014-Nov-20 14:44 341 8 gusting 13 15.6
2014-Nov-20 14:34 315 8 gusting 13 15.6
2014-Nov-20 14:14 333 5 gusting 7 16.1
2014-Nov-20 14:04 324 6 gusting 6 16.1
2014-Nov-20 13:54 351 7 gusting 15 16.1
2014-Nov-20 13:44 355 8 gusting 11 16.1
2014-Nov-20 13:34 339 5 gusting 10 16.1
2014-Nov-20 13:14 300 6 gusting 6 16.1
2014-Nov-20 13:04 341 8 gusting 19 16.1
2014-Nov-20 12:44 297 9 gusting 14 16.1
2014-Nov-20 12:34 315 8 gusting 13 16.1
2014-Nov-20 12:14 333 9 gusting 13 16.1
2014-Nov-20 12:04 312 9 gusting 11 16.1
2014-Nov-20 11:54 314 12 gusting 13 16.1
2014-Nov-20 11:44 310 8 gusting 9 16.1
2014-Nov-20 11:34 316 9 gusting 12 16.1
2014-Nov-20 11:17 305 10 gusting 13 16.1
2014-Nov-20 10:47 352 11 gusting 13 16.1
2014-Nov-20 10:27 319 8 gusting 12 16.1
2014-Nov-20 10:17 341 9 gusting 10 15.6
2014-Nov-20 09:57 303 10 gusting 11 15.6
2014-Nov-20 09:47 323 8 gusting 17 15.6
2014-Nov-20 09:27 349 9 gusting 13 15.6
2014-Nov-20 09:17 348 9 gusting 14 15.6
2014-Nov-20 08:57 337 6 gusting 5 15.0
2014-Nov-20 08:47 327 9 gusting 13 15.0
2014-Nov-20 08:27 339 9 gusting 15 15.0
2014-Nov-20 08:17 308 6 gusting 11 15.0
2014-Nov-20 07:57 316 7 gusting 9 14.4
2014-Nov-20 07:47 347 6 gusting 6 14.4
2014-Nov-20 07:27 14.4
2014-Nov-20 07:17 316 7 gusting 8 13.9
2014-Nov-20 06:57 327 6 gusting 11 13.9
2014-Nov-20 06:47 007 7 gusting 7 13.3
2014-Nov-20 06:27 358 6 gusting 10 13.9
2014-Nov-20 06:17 300 9 gusting 13 13.3
2014-Nov-20 05:57 339 6 gusting 7 13.3
2014-Nov-20 05:47 348 12 gusting 15 13.3
2014-Nov-20 05:27 305 10 gusting 13 13.3
2014-Nov-20 05:17 322 11 gusting 15 13.3
2014-Nov-20 04:57 346 8 gusting 10 13.3
2014-Nov-20 04:47 315 9 gusting 13 13.3
2014-Nov-20 04:37 327 8 gusting 13 13.3
2014-Nov-20 04:27 334 11 gusting 16 13.3
2014-Nov-20 04:17 341 10 gusting 13 13.3
2014-Nov-20 04:07 314 10 gusting 12 13.9
2014-Nov-20 03:57 336 9 gusting 12 13.9
2014-Nov-20 03:47 348 8 gusting 17 13.9
2014-Nov-20 03:27 350 7 gusting 11 13.9
2014-Nov-20 03:17 341 7 gusting 9 13.9
2014-Nov-20 02:57 333 7 gusting 13 13.9
2014-Nov-20 02:47 045 6 gusting 11 13.9
2014-Nov-20 02:27 346 9 gusting 12 14.4
2014-Nov-20 02:17 351 8 gusting 9 14.4
2014-Nov-20 01:57 359 7 gusting 10 13.9
2014-Nov-20 01:47 334 6 gusting 12 13.9
2014-Nov-20 01:27 006 7 gusting 11 14.4
2014-Nov-20 01:17 14.4
2014-Nov-20 00:57 356 4 gusting 5 14.4
2014-Nov-20 00:47 14.4
2014-Nov-20 00:27 311 2 gusting 4 15.0
2014-Nov-20 00:17 354 2 gusting 4 15.0
2014-Nov-19 23:57 345 2 gusting 4 15.0
2014-Nov-19 23:47 341 3 gusting 5 15.0
2014-Nov-19 23:27 289 4 gusting 6 15.0
2014-Nov-19 23:17 322 2 gusting 3 15.0
2014-Nov-19 22:57 327 2 gusting 3 15.0
2014-Nov-19 22:47 347 4 gusting 5 15.6
2014-Nov-19 22:27 359 4 gusting 6 15.6
2014-Nov-19 22:17 023 3 gusting 2 15.6
2014-Nov-19 21:57 008 0 gusting 2 15.6
2014-Nov-19 21:47 005 3 gusting 3 15.6
2014-Nov-19 21:27 314 3 gusting 3 16.1
2014-Nov-19 21:17 329 3 gusting 4 16.1
2014-Nov-19 20:57 307 4 gusting 6 16.1
2014-Nov-19 20:47 280 4 gusting 10 16.1
2014-Nov-19 20:27 313 3 gusting 3 16.7
2014-Nov-19 20:17 309 2 gusting 5 16.7
2014-Nov-19 19:57 300 16.7
2014-Nov-19 19:47 017 16.7
2014-Nov-19 19:27 321 2 gusting 3 16.7
2014-Nov-19 19:17 328 2 gusting 3 16.7
2014-Nov-19 18:57 043 0 gusting 2 16.7
2014-Nov-19 18:47 044 16.7
2014-Nov-19 18:27 042 16.7
2014-Nov-19 18:17 041 16.7
2014-Nov-19 17:57 050 2 gusting 2 16.1
2014-Nov-19 17:47 028 16.7
2014-Nov-19 17:27 027 17.2
2014-Nov-19 17:17 028 0 17.2
2014-Nov-19 16:57 002 2 gusting 3 17.2
2014-Nov-19 16:47 302 17.2
2014-Nov-19 16:37 037 17.2
2014-Nov-19 16:27 037 17.8
2014-Nov-19 16:17 037 17.2
2014-Nov-19 16:07 037 17.2
2014-Nov-19 15:57 037 17.2
2014-Nov-19 15:47 037 1 gusting 3 17.2
2014-Nov-19 15:27 060 0 gusting 2 17.2
2014-Nov-19 15:17 091 0 17.8
2014-Nov-19 14:57 016 5 gusting 5 17.8
2014-Nov-19 14:47 310 1 gusting 4 17.8
2014-Nov-19 14:37 310 5 gusting 6 17.8
2014-Nov-19 14:27 311 6 gusting 7 17.8
2014-Nov-19 14:17 288 5 gusting 5 17.8
2014-Nov-19 14:07 297 4 gusting 5 17.8
2014-Nov-19 13:57 278 3 gusting 6 17.8
2014-Nov-19 13:47 274 17.8
2014-Nov-19 13:37 223 18.3
2014-Nov-19 13:27 221 2 gusting 3 18.3
2014-Nov-19 13:17 179 2 gusting 3 18.3
2014-Nov-19 13:07 202 2 gusting 4 18.3
2014-Nov-19 12:57 147 0 gusting 3 18.3
2014-Nov-19 12:47 236 18.3
2014-Nov-19 12:37 236 18.3
2014-Nov-19 12:27 236 18.3
2014-Nov-19 12:17 237 18.3
2014-Nov-19 12:07 236 1 gusting 3 18.3
2014-Nov-19 11:57 253 17.8
2014-Nov-19 11:47 252 17.8
2014-Nov-19 11:27 089 18.3
2014-Nov-19 11:17 089 17.8
2014-Nov-19 10:57 089 17.8
2014-Nov-19 10:47 089 17.8
2014-Nov-19 10:27 050 2 gusting 3 17.8
2014-Nov-19 10:17 043 17.8
2014-Nov-19 09:57 120 17.8
2014-Nov-19 09:47 108 17.2
2014-Nov-19 09:27 111 17.2
2014-Nov-19 09:17 129 17.2
2014-Nov-19 08:57 107 17.2
2014-Nov-19 08:47 048 16.7
2014-Nov-19 08:27 346 16.1
2014-Nov-19 08:17 336 16.7
2014-Nov-19 07:57 008 16.1
2014-Nov-19 07:47 306 16.7
2014-Nov-19 07:37 329 17.2
2014-Nov-19 07:27 308 17.2
2014-Nov-19 07:17 292 17.8
2014-Nov-19 07:07 022 17.8
2014-Nov-19 06:57 050 17.8
2014-Nov-19 06:47 051 17.2
2014-Nov-19 06:27 035 17.2
2014-Nov-19 06:17 042 17.2
2014-Nov-19 05:57 049 17.2
2014-Nov-19 05:47 300 16.7
2014-Nov-19 05:27 301 16.7
2014-Nov-19 05:17 300 16.7
2014-Nov-19 04:57 043 16.7
2014-Nov-19 04:47 043 16.7
2014-Nov-19 04:27 043 16.7
2014-Nov-19 04:17 040 16.7
2014-Nov-19 03:57 032 16.7
2014-Nov-19 03:47 032 16.7
2014-Nov-19 03:27 041 16.1
2014-Nov-19 03:17 327 16.1
2014-Nov-19 02:57 325 16.1
2014-Nov-19 02:47 324 16.7
2014-Nov-19 02:27 324 16.7
2014-Nov-19 02:17 325 16.7
2014-Nov-19 01:57 073 16.1
2014-Nov-19 01:47 087 16.1
2014-Nov-19 01:27 086 16.7
2014-Nov-19 01:17 086 16.7
2014-Nov-19 00:57 087 16.7
2014-Nov-19 00:47 086 16.7
2014-Nov-19 00:27 086 16.7
2014-Nov-19 00:17 080 16.7
2014-Nov-18 23:57 047 16.7
2014-Nov-18 23:47 047 16.7
2014-Nov-18 23:27 047 16.7
2014-Nov-18 23:17 047 17.2